createdAt,value
2018-08-22T00:01:41.704Z,62.60
2018-08-22T00:04:13.414Z,62.70
2018-08-22T00:06:45.142Z,62.80
2018-08-22T00:09:16.816Z,62.80
2018-08-22T00:11:48.487Z,62.90
2018-08-22T00:14:20.377Z,63.10
2018-08-22T00:16:51.987Z,63.00
2018-08-22T00:19:23.648Z,63.20
2018-08-22T00:21:55.447Z,63.20
2018-08-22T00:24:27.065Z,63.10
2018-08-22T00:26:58.733Z,63.20
2018-08-22T00:29:30.618Z,63.30
2018-08-22T00:32:02.578Z,63.40
2018-08-22T00:34:34.311Z,63.50
2018-08-22T00:37:06.045Z,63.80
2018-08-22T00:39:37.658Z,63.80
2018-08-22T00:42:09.385Z,64.20
2018-08-22T00:44:41.040Z,65.00
2018-08-22T00:47:12.695Z,64.60
2018-08-22T00:49:44.735Z,64.80
2018-08-22T00:52:16.558Z,64.80
2018-08-22T00:54:48.353Z,64.90
2018-08-22T00:57:20.120Z,65.10
2018-08-22T00:59:52.049Z,64.80
2018-08-22T01:02:23.732Z,64.60
2018-08-22T01:04:55.538Z,64.70
2018-08-22T01:07:27.254Z,64.90
2018-08-22T01:09:59.116Z,65.10
2018-08-22T01:12:30.928Z,65.20
2018-08-22T01:15:02.534Z,65.40
2018-08-22T01:17:34.328Z,65.60
2018-08-22T01:20:06.973Z,65.80
2018-08-22T01:22:38.764Z,65.80
2018-08-22T01:25:10.669Z,66.00
2018-08-22T01:27:45.536Z,66.30
2018-08-22T01:30:17.316Z,66.40
2018-08-22T01:32:48.964Z,66.70
2018-08-22T01:35:20.697Z,67.00
2018-08-22T01:37:52.378Z,67.40
2018-08-22T01:40:24.144Z,67.70
2018-08-22T01:42:55.972Z,68.00
2018-08-22T01:45:27.687Z,68.20
2018-08-22T01:47:59.321Z,68.30
2018-08-22T01:50:31.284Z,68.20
2018-08-22T01:53:03.066Z,69.00
2018-08-22T01:55:34.977Z,68.20
2018-08-22T01:58:06.756Z,68.00
2018-08-22T02:00:38.421Z,68.40
2018-08-22T02:03:10.356Z,68.20
2018-08-22T02:05:42.048Z,68.20
2018-08-22T02:08:13.765Z,68.30
2018-08-22T02:10:45.442Z,68.30
2018-08-22T02:13:17.114Z,68.50
2018-08-22T02:15:48.997Z,68.70
2018-08-22T02:18:20.641Z,69.00
2018-08-22T02:20:52.288Z,69.80
2018-08-22T02:23:24.121Z,69.40
2018-08-22T02:25:55.788Z,69.40
2018-08-22T02:28:27.462Z,69.00
2018-08-22T02:30:59.242Z,69.00
2018-08-22T02:33:30.857Z,69.10
2018-08-22T02:36:02.614Z,69.30
2018-08-22T02:38:34.405Z,69.40
2018-08-22T02:41:06.221Z,69.00
2018-08-22T02:43:37.992Z,69.10
2018-08-22T02:46:09.752Z,69.30
2018-08-22T02:48:46.263Z,69.60
2018-08-22T02:51:18.081Z,70.00
2018-08-22T02:53:49.884Z,70.10
2018-08-22T02:56:22.062Z,70.30
2018-08-22T02:58:53.684Z,70.00
2018-08-22T03:01:25.422Z,70.90
2018-08-22T03:03:57.210Z,69.80
2018-08-22T03:06:28.862Z,69.60
2018-08-22T03:09:00.697Z,69.70
2018-08-22T03:11:32.453Z,70.10
2018-08-22T03:14:04.122Z,70.60
2018-08-22T03:16:35.867Z,71.10
2018-08-22T03:19:07.554Z,71.50
2018-08-22T03:21:39.286Z,71.60
2018-08-22T03:24:11.143Z,71.30
2018-08-22T03:26:42.810Z,71.20
2018-08-22T03:29:14.486Z,71.50
2018-08-22T03:31:46.268Z,71.60
2018-08-22T03:34:17.913Z,71.60
2018-08-22T03:36:49.632Z,71.80
2018-08-22T03:39:21.404Z,71.30
2018-08-22T03:41:53.033Z,71.00
2018-08-22T03:44:24.908Z,71.20
2018-08-22T03:46:56.719Z,71.50
2018-08-22T03:49:28.354Z,71.30
2018-08-22T03:52:00.118Z,71.00
2018-08-22T03:54:32.028Z,71.30
2018-08-22T03:57:03.950Z,71.70
2018-08-22T03:59:35.995Z,72.50
2018-08-22T04:02:07.740Z,71.90
2018-08-22T04:04:39.534Z,72.20
2018-08-22T04:07:11.253Z,72.30
2018-08-22T04:09:42.940Z,72.40
2018-08-22T04:12:14.593Z,72.50
2018-08-22T04:14:46.443Z,72.20
2018-08-22T04:17:18.201Z,72.10
2018-08-22T04:19:50.078Z,72.30
2018-08-22T04:22:21.814Z,72.20
2018-08-22T04:24:53.716Z,72.10
2018-08-22T04:27:25.475Z,71.90
2018-08-22T04:29:57.110Z,71.80
2018-08-22T04:32:28.772Z,71.70
2018-08-22T04:35:00.426Z,71.60
2018-08-22T04:37:32.186Z,71.80
2018-08-22T04:40:03.841Z,71.90
2018-08-22T04:42:35.567Z,72.00
2018-08-22T04:45:07.422Z,72.00
2018-08-22T04:47:39.239Z,72.10
2018-08-22T04:50:10.876Z,72.30
2018-08-22T04:52:42.671Z,72.50
2018-08-22T04:55:14.518Z,72.30
2018-08-22T04:57:46.148Z,72.20
2018-08-22T05:00:17.982Z,72.40
2018-08-22T05:02:49.809Z,72.70
2018-08-22T05:05:21.658Z,73.00
2018-08-22T05:07:53.477Z,73.10
2018-08-22T05:10:25.237Z,72.90
2018-08-22T05:12:56.895Z,73.20
2018-08-22T05:15:28.646Z,73.10
2018-08-22T05:18:00.316Z,73.00
2018-08-22T05:20:32.069Z,72.60
2018-08-22T05:23:04.137Z,72.30
2018-08-22T05:25:35.885Z,72.10
2018-08-22T05:28:07.751Z,71.80
2018-08-22T05:30:39.508Z,71.40
2018-08-22T05:33:11.170Z,70.90
2018-08-22T05:35:42.822Z,70.40
2018-08-22T05:38:14.599Z,70.10
2018-08-22T05:40:46.634Z,69.70
2018-08-22T05:43:18.226Z,69.20
2018-08-22T05:45:49.881Z,68.80
2018-08-22T05:48:21.737Z,68.40
2018-08-22T05:50:53.484Z,68.10
2018-08-22T05:53:25.257Z,67.80
2018-08-22T05:55:57.036Z,67.50
2018-08-22T05:58:28.800Z,67.30
2018-08-22T06:01:00.552Z,67.00
2018-08-22T06:03:32.313Z,66.70
2018-08-22T06:06:04.168Z,66.20
2018-08-22T06:08:35.909Z,66.00
2018-08-22T06:11:07.746Z,65.80
2018-08-22T06:13:39.430Z,65.40
2018-08-22T06:16:11.195Z,65.10
2018-08-22T06:18:43.028Z,64.70
2018-08-22T06:21:14.816Z,64.10
2018-08-22T06:23:46.665Z,63.40
2018-08-22T06:26:18.493Z,63.20
2018-08-22T06:28:50.293Z,63.20
2018-08-22T06:31:21.942Z,63.00
2018-08-22T06:33:53.731Z,62.80
2018-08-22T06:36:25.402Z,62.10
2018-08-22T06:38:57.290Z,61.70
2018-08-22T06:41:29.107Z,61.40
2018-08-22T06:44:01.045Z,60.90
2018-08-22T06:46:32.829Z,60.60
2018-08-22T06:49:04.457Z,60.00
2018-08-22T06:51:36.199Z,59.60
2018-08-22T06:54:08.108Z,59.30
2018-08-22T06:56:39.746Z,59.60
2018-08-22T06:59:11.390Z,59.20
2018-08-22T07:01:43.180Z,58.90
2018-08-22T07:04:14.806Z,58.80
2018-08-22T07:06:46.795Z,58.70
2018-08-22T07:09:18.761Z,58.60
2018-08-22T07:11:50.506Z,58.20
2018-08-22T07:14:22.158Z,58.00
2018-08-22T07:16:53.893Z,57.90
2018-08-22T07:19:25.748Z,58.20
2018-08-22T07:21:57.558Z,58.10
2018-08-22T07:24:29.302Z,58.20
2018-08-22T07:27:01.141Z,57.90
2018-08-22T07:29:32.801Z,57.00
2018-08-22T07:32:04.579Z,56.80
2018-08-22T07:34:36.307Z,56.40
2018-08-22T07:37:07.977Z,56.10
2018-08-22T07:39:39.717Z,56.40
2018-08-22T07:42:11.629Z,56.20
2018-08-22T07:44:43.389Z,55.70
2018-08-22T07:47:15.043Z,55.30
2018-08-22T07:49:46.673Z,55.50
2018-08-22T07:52:18.332Z,55.20
2018-08-22T07:54:50.115Z,54.70
2018-08-22T07:57:24.015Z,54.60
2018-08-22T07:59:55.719Z,54.40
2018-08-22T08:02:27.323Z,54.40
2018-08-22T08:04:59.408Z,54.50
2018-08-22T08:07:31.243Z,53.60
2018-08-22T08:10:02.902Z,53.90
2018-08-22T08:12:39.957Z,53.80
2018-08-22T08:15:11.738Z,53.10
2018-08-22T08:17:43.580Z,52.80
2018-08-22T08:20:15.486Z,52.80
2018-08-22T08:22:47.196Z,52.20
2018-08-22T08:25:18.938Z,51.50
2018-08-22T08:27:50.716Z,51.40
2018-08-22T08:30:22.374Z,51.30
2018-08-22T08:32:54.140Z,51.50
2018-08-22T08:35:25.988Z,51.40
2018-08-22T08:37:57.881Z,51.00
2018-08-22T08:40:29.533Z,50.40
2018-08-22T08:43:01.421Z,50.40
2018-08-22T08:45:33.280Z,50.20
2018-08-22T08:48:04.915Z,50.40
2018-08-22T08:50:36.745Z,50.50
2018-08-22T08:53:08.553Z,50.10
2018-08-22T08:55:40.141Z,49.30
2018-08-22T08:58:12.852Z,49.40
2018-08-22T09:00:44.561Z,49.20
2018-08-22T09:03:16.257Z,49.00
2018-08-22T09:05:47.945Z,48.90
2018-08-22T09:08:19.913Z,48.50
2018-08-22T09:10:51.949Z,48.00
2018-08-22T09:13:23.711Z,47.80
2018-08-22T09:15:55.386Z,47.30
2018-08-22T09:18:27.261Z,47.00
2018-08-22T09:20:59.027Z,46.90
2018-08-22T09:23:30.656Z,46.30
2018-08-22T09:26:02.336Z,45.80
2018-08-22T09:28:34.089Z,45.90
2018-08-22T09:31:05.836Z,45.90
2018-08-22T09:33:37.590Z,45.90
2018-08-22T09:36:09.345Z,45.50
2018-08-22T09:38:41.000Z,44.70
2018-08-22T09:41:12.750Z,44.30
2018-08-22T09:43:44.430Z,44.40
2018-08-22T09:46:16.074Z,44.50
2018-08-22T09:48:47.821Z,43.80
2018-08-22T09:51:19.628Z,44.00
2018-08-22T09:53:51.253Z,43.90
2018-08-22T09:56:22.993Z,43.60
2018-08-22T09:58:54.678Z,43.50
2018-08-22T10:01:31.371Z,42.60
2018-08-22T10:04:03.610Z,42.50
2018-08-22T10:06:42.372Z,42.00
2018-08-22T10:09:24.265Z,41.60
2018-08-22T10:11:56.262Z,41.20
2018-08-22T10:14:28.101Z,40.90
2018-08-22T10:16:59.712Z,40.10
2018-08-22T10:19:31.468Z,40.10
2018-08-22T10:22:03.263Z,39.70
2018-08-22T10:24:34.893Z,40.00
2018-08-22T10:27:06.741Z,40.10
2018-08-22T10:29:38.539Z,39.80
2018-08-22T10:32:10.151Z,39.80
2018-08-22T10:34:41.822Z,39.20
2018-08-22T10:37:13.766Z,38.80
2018-08-22T10:39:45.630Z,39.40
2018-08-22T10:42:17.310Z,39.80
2018-08-22T10:44:49.087Z,39.00
2018-08-22T10:47:20.850Z,39.50
2018-08-22T10:49:52.478Z,38.70
2018-08-22T10:52:24.142Z,39.20
2018-08-22T10:54:55.974Z,39.50
2018-08-22T10:57:27.640Z,40.00
2018-08-22T10:59:59.397Z,39.90
2018-08-22T11:02:31.153Z,39.80
2018-08-22T11:05:02.843Z,39.40
2018-08-22T11:07:34.614Z,39.20
2018-08-22T11:10:06.437Z,39.10
2018-08-22T11:12:38.339Z,38.60
2018-08-22T11:15:10.209Z,39.10
2018-08-22T11:17:42.063Z,39.40
2018-08-22T11:20:13.901Z,38.90
2018-08-22T11:23:01.756Z,39.00
2018-08-22T11:25:49.953Z,38.40
2018-08-22T11:28:37.582Z,38.00
2018-08-22T11:31:25.521Z,38.60
2018-08-22T11:34:13.409Z,39.30
2018-08-22T11:36:56.533Z,38.70
2018-08-22T11:39:28.204Z,38.10
2018-08-22T11:42:00.014Z,38.40
2018-08-22T11:44:31.858Z,38.70
2018-08-22T11:47:03.807Z,38.70
2018-08-22T11:49:35.577Z,39.20
2018-08-22T11:52:07.364Z,39.10
2018-08-22T11:54:39.020Z,38.80
2018-08-22T11:57:10.866Z,38.70
2018-08-22T11:59:42.622Z,39.00
2018-08-22T12:02:14.294Z,39.10
2018-08-22T12:04:46.033Z,39.10
2018-08-22T12:07:17.713Z,38.60
2018-08-22T12:09:49.369Z,38.50
2018-08-22T12:12:21.157Z,38.20
2018-08-22T12:14:52.917Z,38.20
2018-08-22T12:17:24.558Z,37.00
2018-08-22T12:19:56.538Z,36.10
2018-08-22T12:22:28.153Z,33.00
2018-08-22T12:24:59.822Z,32.50
2018-08-22T12:27:31.564Z,31.10
2018-08-22T12:30:03.238Z,31.90
2018-08-22T12:32:34.997Z,31.50
2018-08-22T12:35:07.151Z,32.20
2018-08-22T12:37:38.943Z,32.10
2018-08-22T12:40:10.922Z,31.90
2018-08-22T12:42:42.545Z,31.50
2018-08-22T12:45:14.331Z,32.10
2018-08-22T12:47:46.053Z,31.10
2018-08-22T12:50:17.724Z,30.30
2018-08-22T12:52:49.560Z,29.10
2018-08-22T12:55:21.238Z,29.20
2018-08-22T12:57:53.699Z,29.40
2018-08-22T13:00:25.337Z,30.00
2018-08-22T13:02:57.155Z,30.00
2018-08-22T13:05:28.882Z,30.10
2018-08-22T13:08:00.546Z,30.30
2018-08-22T13:10:32.330Z,29.70
2018-08-22T13:13:04.047Z,29.90
2018-08-22T13:15:35.709Z,29.30
2018-08-22T13:18:07.653Z,29.60
2018-08-22T13:20:39.630Z,30.00
2018-08-22T13:23:11.450Z,29.70
2018-08-22T13:25:43.263Z,29.10
2018-08-22T13:28:15.105Z,29.60
2018-08-22T13:30:47.065Z,29.70
2018-08-22T13:33:18.733Z,29.70
2018-08-22T13:35:50.634Z,29.60
2018-08-22T13:38:22.387Z,29.70
2018-08-22T13:40:54.124Z,29.00
2018-08-22T13:43:25.968Z,29.10
2018-08-22T13:45:57.639Z,29.50
2018-08-22T13:48:29.411Z,29.60
2018-08-22T13:51:01.138Z,29.70
2018-08-22T13:53:32.947Z,29.70
2018-08-22T13:56:04.762Z,29.80
2018-08-22T13:58:36.514Z,31.10
2018-08-22T14:01:08.287Z,31.00
2018-08-22T14:03:40.050Z,31.60
2018-08-22T14:06:11.789Z,32.00
2018-08-22T14:08:43.462Z,32.30
2018-08-22T14:11:15.211Z,32.50
2018-08-22T14:13:47.073Z,32.00
2018-08-22T14:16:18.854Z,32.70
2018-08-22T14:18:50.511Z,33.20
2018-08-22T14:21:22.294Z,33.10
2018-08-22T14:23:54.055Z,33.30
2018-08-22T14:29:09.461Z,32.80
2018-08-22T14:31:41.193Z,32.90
2018-08-22T14:34:12.842Z,33.00
2018-08-22T14:36:44.778Z,33.10
2018-08-22T14:39:16.485Z,33.10
2018-08-22T14:41:48.214Z,32.70
2018-08-22T14:44:20.106Z,32.70
2018-08-22T14:46:51.953Z,32.50
2018-08-22T14:49:23.775Z,32.70
2018-08-22T14:51:55.562Z,32.40
2018-08-22T14:54:27.396Z,30.40
2018-08-22T14:56:59.074Z,30.70
2018-08-22T14:59:30.917Z,30.70
2018-08-22T15:02:02.594Z,30.70
2018-08-22T15:04:34.337Z,30.80
2018-08-22T15:07:06.147Z,30.50
2018-08-22T15:09:37.771Z,30.50
2018-08-22T15:12:09.560Z,31.20
2018-08-22T15:14:41.370Z,30.70
2018-08-22T15:17:13.281Z,30.80
2018-08-22T15:19:44.894Z,31.20
2018-08-22T15:22:16.726Z,30.70
2018-08-22T15:24:48.507Z,32.10
2018-08-22T15:27:20.124Z,32.70
2018-08-22T15:29:51.924Z,32.90
2018-08-22T15:32:23.754Z,32.30
2018-08-22T15:34:56.746Z,32.40
2018-08-22T15:37:28.406Z,32.90
2018-08-22T15:40:00.119Z,32.90
2018-08-22T15:42:31.706Z,33.30
2018-08-22T15:45:03.505Z,33.40
2018-08-22T15:47:35.411Z,33.40
2018-08-22T15:50:08.063Z,32.50
2018-08-22T15:52:39.713Z,32.50
2018-08-22T15:55:15.143Z,32.90
2018-08-22T15:58:03.058Z,32.90
2018-08-22T16:00:45.818Z,32.60
2018-08-22T16:03:17.509Z,31.80
2018-08-22T16:05:49.908Z,32.30
2018-08-22T16:08:23.507Z,32.70
2018-08-22T16:10:55.207Z,32.70
2018-08-22T16:13:32.294Z,32.90
2018-08-22T16:16:05.085Z,33.20
2018-08-22T16:18:36.843Z,33.40
2018-08-22T16:21:09.322Z,33.70
2018-08-22T16:23:41.149Z,34.20
2018-08-22T16:26:12.975Z,34.20
2018-08-22T16:28:56.036Z,34.00
2018-08-22T16:31:33.200Z,34.10
2018-08-22T16:34:04.975Z,33.90
2018-08-22T16:36:36.658Z,34.00
2018-08-22T16:39:09.445Z,33.90
2018-08-22T16:41:41.329Z,34.20
2018-08-22T16:44:13.064Z,34.30
2018-08-22T16:46:44.806Z,34.50
2018-08-22T16:49:16.621Z,34.50
2018-08-22T16:51:48.459Z,34.30
2018-08-22T16:54:20.179Z,35.00
2018-08-22T16:56:51.949Z,34.20
2018-08-22T16:59:23.614Z,34.50
2018-08-22T17:01:55.374Z,34.60
2018-08-22T17:04:27.030Z,34.70
2018-08-22T17:07:04.758Z,34.70
2018-08-22T17:09:36.386Z,34.70
2018-08-22T17:12:08.275Z,35.70
2018-08-22T17:14:39.985Z,35.40
2018-08-22T17:17:11.663Z,35.50
2018-08-22T17:19:43.513Z,35.20
2018-08-22T17:22:15.298Z,35.00
2018-08-22T17:24:47.014Z,35.20
2018-08-22T17:27:18.826Z,35.40
2018-08-22T17:29:50.463Z,35.70
2018-08-22T17:32:22.297Z,35.90
2018-08-22T17:34:54.057Z,35.80
2018-08-22T17:37:25.866Z,35.80
2018-08-22T17:39:57.608Z,36.30
2018-08-22T17:42:29.326Z,37.60
2018-08-22T17:45:01.138Z,37.40
2018-08-22T17:47:32.758Z,37.90
2018-08-22T17:50:10.127Z,38.40
2018-08-22T17:52:41.817Z,38.40
2018-08-22T17:55:13.554Z,38.70
2018-08-22T17:57:45.215Z,38.70
2018-08-22T18:00:17.054Z,38.90
2018-08-22T18:02:49.851Z,39.00
2018-08-22T18:05:21.714Z,39.00
2018-08-22T18:07:53.393Z,39.00
2018-08-22T18:10:25.145Z,39.00
2018-08-22T18:13:01.698Z,39.10
2018-08-22T18:15:33.373Z,40.20
2018-08-22T18:18:05.314Z,41.00
2018-08-22T18:20:44.757Z,41.70
2018-08-22T18:23:16.877Z,42.30
2018-08-22T18:25:53.718Z,42.90
2018-08-22T18:28:25.691Z,43.80
2018-08-22T18:30:57.852Z,44.00
2018-08-22T18:33:29.814Z,44.20
2018-08-22T18:36:11.262Z,44.50
2018-08-22T18:38:47.772Z,45.10
2018-08-22T18:41:19.507Z,45.30
2018-08-22T18:43:51.501Z,45.50
2018-08-22T18:46:23.269Z,45.70
2018-08-22T18:48:54.997Z,45.70
2018-08-22T18:51:26.907Z,45.30
2018-08-22T18:53:58.538Z,45.90
2018-08-22T18:56:30.190Z,45.90
2018-08-22T18:59:12.973Z,45.90
2018-08-22T19:01:44.781Z,45.80
2018-08-22T19:04:16.409Z,45.90
2018-08-22T19:06:48.265Z,46.20
2018-08-22T19:09:20.074Z,47.00
2018-08-22T19:11:51.802Z,47.20
2018-08-22T19:14:38.498Z,47.00
2018-08-22T19:17:10.285Z,47.00
2018-08-22T19:19:44.465Z,47.20
2018-08-22T19:22:19.014Z,47.80
2018-08-22T19:25:05.735Z,48.40
2018-08-22T19:27:37.490Z,47.90
2018-08-22T19:30:09.697Z,47.40
2018-08-22T19:32:41.386Z,47.30
2018-08-22T19:35:13.179Z,47.20
2018-08-22T19:37:50.076Z,47.10
2018-08-22T19:40:22.017Z,47.20
2018-08-22T19:42:53.874Z,47.30
2018-08-22T19:45:25.605Z,47.60
2018-08-22T19:47:57.085Z,48.00
2018-08-22T19:50:30.212Z,48.10
2018-08-22T19:53:01.960Z,48.30
2018-08-22T19:55:34.283Z,48.50
2018-08-22T19:58:06.245Z,48.80
2018-08-22T20:00:38.104Z,48.90
2018-08-22T20:03:09.909Z,49.10
2018-08-22T20:05:54.343Z,49.20
2018-08-22T20:08:30.865Z,49.50
2018-08-22T20:11:02.651Z,49.90
2018-08-22T20:13:49.201Z,50.20
2018-08-22T20:16:22.087Z,50.50
2018-08-22T20:18:57.028Z,50.70
2018-08-22T20:21:33.765Z,50.70
2018-08-22T20:24:07.173Z,50.90
2018-08-22T20:26:39.774Z,51.10
2018-08-22T20:29:11.450Z,51.30
2018-08-22T20:31:43.179Z,51.70
2018-08-22T20:34:16.601Z,51.80
2018-08-22T20:36:50.054Z,51.90
2018-08-22T20:39:21.955Z,52.30
2018-08-22T20:41:57.707Z,52.40
2018-08-22T20:44:29.321Z,52.40
2018-08-22T20:47:01.074Z,52.50
2018-08-22T20:49:32.866Z,52.60
2018-08-22T20:52:04.689Z,52.50
2018-08-22T20:54:36.490Z,52.30
2018-08-22T20:57:08.458Z,52.20
2018-08-22T20:59:40.324Z,52.00
2018-08-22T21:02:12.134Z,51.80
2018-08-22T21:04:43.813Z,51.70
2018-08-22T21:07:17.802Z,52.40
2018-08-22T21:09:49.692Z,53.00
2018-08-22T21:12:21.579Z,53.30
2018-08-22T21:14:53.201Z,53.60
2018-08-22T21:17:24.864Z,53.70
2018-08-22T21:19:56.601Z,53.60
2018-08-22T21:22:30.920Z,53.70
2018-08-22T21:25:02.754Z,53.40
2018-08-22T21:27:34.843Z,53.10
2018-08-22T21:30:06.770Z,53.20
2018-08-22T21:32:38.702Z,53.40
2018-08-22T21:35:28.605Z,53.40
2018-08-22T21:38:08.967Z,53.40
2018-08-22T21:40:40.837Z,53.50
2018-08-22T21:43:13.857Z,53.50
2018-08-22T21:45:47.966Z,53.50
2018-08-22T21:48:22.982Z,53.50
2018-08-22T21:50:54.690Z,53.50
2018-08-22T21:53:26.533Z,53.80
2018-08-22T21:55:58.453Z,53.80
2018-08-22T21:58:30.162Z,53.90
2018-08-22T22:01:02.321Z,54.20
2018-08-22T22:03:34.086Z,54.40
2018-08-22T22:06:06.213Z,54.40
2018-08-22T22:08:42.567Z,54.40
2018-08-22T22:11:14.153Z,54.40
2018-08-22T22:13:46.022Z,54.70
2018-08-22T22:16:17.881Z,54.90
2018-08-22T22:18:49.562Z,55.10
2018-08-22T22:21:21.173Z,55.40
2018-08-22T22:23:52.964Z,55.60
2018-08-22T22:26:24.772Z,55.90
2018-08-22T22:28:56.636Z,56.00
2018-08-22T22:31:28.330Z,55.90
2018-08-22T22:34:03.922Z,56.50
2018-08-22T22:36:35.705Z,56.00
2018-08-22T22:39:24.051Z,56.40
2018-08-22T22:41:55.880Z,56.80
2018-08-22T22:44:27.726Z,57.10
2018-08-22T22:46:59.530Z,57.60
2018-08-22T22:49:31.290Z,58.00
2018-08-22T22:52:19.478Z,58.00
2018-08-22T22:54:52.617Z,57.40
2018-08-22T22:57:24.603Z,57.00
2018-08-22T22:59:56.406Z,56.20
2018-08-22T23:02:28.369Z,55.80
2018-08-22T23:05:00.820Z,55.60
2018-08-22T23:07:33.689Z,55.60
2018-08-22T23:10:06.817Z,55.60
2018-08-22T23:12:39.909Z,55.70
2018-08-22T23:15:14.628Z,55.50
2018-08-22T23:17:48.547Z,55.50
2018-08-22T23:20:42.163Z,55.60
2018-08-22T23:23:35.113Z,55.70
2018-08-22T23:26:14.150Z,55.80
2018-08-22T23:28:46.172Z,55.80
2018-08-22T23:31:20.228Z,56.00
2018-08-22T23:33:51.987Z,56.50
2018-08-22T23:36:23.707Z,56.50
2018-08-22T23:38:55.341Z,56.80
2018-08-22T23:41:27.198Z,57.30
2018-08-22T23:43:59.125Z,57.60
2018-08-22T23:46:30.881Z,57.80
2018-08-22T23:49:02.641Z,58.40
2018-08-22T23:51:34.399Z,59.20
2018-08-22T23:54:06.084Z,58.90
2018-08-22T23:56:38.124Z,59.10
2018-08-22T23:59:09.697Z,59.10
